Time;durP1;ratioP1;P1;durP2;ratioP2;P2;SDS_P1;SDS_P2;PMS_P1;PMS_P2;Temp;Humidity;BMP_temperature;BMP_pressure;BME280_temperature;BME280_humidity;BME280_pressure;Samples;Min_cycle;Max_cycle;Signal;HPM_P1;HPM_P2
2022/10/11 00:00:07;;;;;;;0.00;0.00;;;;;;;;;;1740795;28;20810;-70
2022/10/11 00:00:59;;;;;;;0.00;0.00;;;;;;;;;;1740539;28;20234;-71
2022/10/11 00:01:51;;;;;;;0.00;0.00;;;;;;;;;;1740290;28;20214;-71
2022/10/11 00:02:43;;;;;;;0.00;0.00;;;;;;;;;;1740702;28;20554;-71
2022/10/11 00:03:35;;;;;;;0.00;0.00;;;;;;;;;;1740529;28;20407;-71
2022/10/11 00:04:26;;;;;;;0.00;0.00;;;;;;;;;;1740922;28;20652;-71
2022/10/11 00:05:18;;;;;;;0.00;0.00;;;;;;;;;;1740154;28;20213;-71
2022/10/11 00:06:09;;;;;;;0.00;0.00;;;;;;;;;;1740615;28;20301;-71
2022/10/11 00:07:01;;;;;;;0.00;0.00;;;;;;;;;;1739772;28;20206;-71
2022/10/11 00:07:52;;;;;;;0.00;0.00;;;;;;;;;;1740525;28;20765;-71
2022/10/11 00:08:44;;;;;;;0.00;0.00;;;;;;;;;;1740402;28;20257;-71
2022/10/11 00:09:35;;;;;;;0.00;0.00;;;;;;;;;;1740489;28;20681;-71
2022/10/11 00:10:28;;;;;;;0.00;0.00;;;;;;;;;;1740825;28;20194;-71
2022/10/11 00:11:19;;;;;;;0.00;0.00;;;;;;;;;;1740438;28;20600;-71
2022/10/11 00:12:11;;;;;;;0.00;0.00;;;;;;;;;;1740220;28;20214;-71
2022/10/11 00:13:02;;;;;;;0.00;0.00;;;;;;;;;;1740250;28;20272;-71
2022/10/11 00:13:54;;;;;;;0.00;0.00;;;;;;;;;;1740353;28;20211;-71
2022/10/11 00:14:45;;;;;;;0.00;0.00;;;;;;;;;;1740207;28;20542;-71
2022/10/11 00:15:39;;;;;;;0.00;0.00;;;;;;;;;;1740717;28;20630;-71
2022/10/11 00:16:31;;;;;;;0.00;0.00;;;;;;;;;;1740318;28;20743;-71
2022/10/11 00:17:23;;;;;;;0.00;0.00;;;;;;;;;;1740492;28;20230;-71
2022/10/11 00:18:15;;;;;;;0.00;0.00;;;;;;;;;;1740362;28;20297;-71
2022/10/11 00:19:07;;;;;;;0.00;0.00;;;;;;;;;;1740530;28;20207;-71
2022/10/11 00:19:58;;;;;;;0.00;0.00;;;;;;;;;;1740388;28;20245;-71
2022/10/11 00:20:50;;;;;;;0.00;0.00;;;;;;;;;;1740886;28;20211;-71
2022/10/11 00:21:41;;;;;;;0.00;0.00;;;;;;;;;;1740172;28;20199;-70
2022/10/11 00:22:33;;;;;;;0.00;0.00;;;;;;;;;;1740552;28;20191;-70
2022/10/11 00:23:24;;;;;;;0.00;0.00;;;;;;;;;;1740188;28;20235;-70
2022/10/11 00:24:16;;;;;;;0.00;0.00;;;;;;;;;;1740666;28;20206;-70
2022/10/11 00:25:08;;;;;;;0.00;0.00;;;;;;;;;;1740573;28;20211;-70
2022/10/11 00:26:01;;;;;;;0.00;0.00;;;;;;;;;;1740496;28;20534;-71
2022/10/11 00:26:52;;;;;;;0.00;0.00;;;;;;;;;;1740144;28;20235;-71
2022/10/11 00:27:44;;;;;;;0.00;0.00;;;;;;;;;;1740500;28;20641;-71
2022/10/11 00:28:36;;;;;;;0.00;0.00;;;;;;;;;;1740255;28;20207;-71
2022/10/11 00:29:28;;;;;;;0.00;0.00;;;;;;;;;;1740506;28;20195;-71
2022/10/11 00:30:19;;;;;;;0.00;0.00;;;;;;;;;;1740601;28;20644;-71
2022/10/11 00:31:12;;;;;;;0.00;0.00;;;;;;;;;;1740612;28;20206;-70
2022/10/11 00:32:05;;;;;;;0.00;0.00;;;;;;;;;;1739738;28;20207;-70
2022/10/11 00:32:57;;;;;;;0.00;0.00;;;;;;;;;;1740381;28;20203;-70
2022/10/11 00:33:48;;;;;;;0.00;0.00;;;;;;;;;;1740224;28;20282;-70
2022/10/11 00:34:40;;;;;;;0.00;0.00;;;;;;;;;;1740354;28;20540;-70
2022/10/11 00:35:31;;;;;;;0.00;0.00;;;;;;;;;;1740677;28;20664;-70
2022/10/11 00:36:23;;;;;;;0.00;0.00;;;;;;;;;;1740444;28;20202;-70
2022/10/11 00:37:14;;;;;;;0.00;0.00;;;;;;;;;;1740317;28;20211;-70
2022/10/11 00:38:06;;;;;;;0.00;0.00;;;;;;;;;;1740225;28;20199;-70
2022/10/11 00:38:58;;;;;;;0.00;0.00;;;;;;;;;;1740687;28;20410;-70
2022/10/11 00:39:50;;;;;;;0.00;0.00;;;;;;;;;;1740196;28;20288;-70
2022/10/11 00:40:42;;;;;;;0.00;0.00;;;;;;;;;;1741044;28;20657;-70
2022/10/11 00:41:34;;;;;;;0.00;0.00;;;;;;;;;;1740215;28;20264;-71
2022/10/11 00:42:25;;;;;;;0.00;0.00;;;;;;;;;;1739961;28;20514;-71
2022/10/11 00:43:18;;;;;;;0.00;0.00;;;;;;;;;;1740349;28;20628;-71
2022/10/11 00:44:10;;;;;;;0.00;0.00;;;;;;;;;;1740189;28;20235;-71
2022/10/11 00:45:21;;;;;;;0.00;0.00;;;;;;;;;;1740314;28;20229;-71
2022/10/11 00:46:25;;;;;;;0.00;0.00;;;;;;;;;;1740346;28;20211;-70
2022/10/11 00:47:20;;;;;;;0.00;0.00;;;;;;;;;;1740330;28;20214;-70
2022/10/11 00:48:14;;;;;;;0.00;0.00;;;;;;;;;;1739981;28;20254;-70
2022/10/11 00:49:12;;;;;;;0.00;0.00;;;;;;;;;;1740496;28;20533;-70
2022/10/11 00:50:04;;;;;;;0.00;0.00;;;;;;;;;;1740399;28;20227;-70
2022/10/11 00:50:57;;;;;;;0.00;0.00;;;;;;;;;;1740521;28;20238;-71
2022/10/11 00:51:50;;;;;;;0.00;0.00;;;;;;;;;;1739826;28;20234;-71
2022/10/11 00:52:46;;;;;;;0.00;0.00;;;;;;;;;;1739942;28;20233;-71
2022/10/11 00:53:37;;;;;;;0.00;0.00;;;;;;;;;;1739664;28;20258;-71
2022/10/11 00:54:32;;;;;;;0.10;0.10;;;;;;;;;;1740261;28;20199;-71
2022/10/11 00:55:24;;;;;;;0.00;0.00;;;;;;;;;;1740699;28;20191;-71
2022/10/11 00:56:21;;;;;;;0.00;0.00;;;;;;;;;;1740336;28;20321;-70
2022/10/11 00:57:13;;;;;;;0.00;0.00;;;;;;;;;;1740340;28;20234;-70
2022/10/11 00:58:06;;;;;;;0.00;0.00;;;;;;;;;;1739966;28;20514;-70
2022/10/11 00:58:57;;;;;;;0.00;0.00;;;;;;;;;;1740223;28;20545;-70
2022/10/11 00:59:51;;;;;;;0.00;0.00;;;;;;;;;;1740196;28;20641;-70
2022/10/11 01:00:42;;;;;;;0.00;0.00;;;;;;;;;;1740426;28;20249;-70
2022/10/11 01:01:34;;;;;;;0.00;0.00;;;;;;;;;;1740138;28;20276;-70
2022/10/11 01:02:29;;;;;;;0.00;0.00;;;;;;;;;;1740096;28;20237;-70
2022/10/11 01:03:21;;;;;;;0.00;0.00;;;;;;;;;;1739742;28;20268;-70
2022/10/11 01:04:13;;;;;;;0.00;0.00;;;;;;;;;;1740284;28;20300;-70
2022/10/11 01:05:05;;;;;;;0.00;0.00;;;;;;;;;;1740162;28;20256;-70
2022/10/11 01:05:56;;;;;;;0.00;0.00;;;;;;;;;;1740128;28;20272;-71
2022/10/11 01:06:49;;;;;;;0.00;0.00;;;;;;;;;;1739750;28;20217;-71
2022/10/11 01:07:41;;;;;;;0.00;0.00;;;;;;;;;;1740304;28;20664;-71
2022/10/11 01:08:33;;;;;;;0.00;0.00;;;;;;;;;;1739794;28;20253;-71
2022/10/11 01:09:25;;;;;;;0.00;0.00;;;;;;;;;;1740164;28;20246;-71
2022/10/11 01:10:17;;;;;;;0.00;0.00;;;;;;;;;;1740386;28;20207;-71
2022/10/11 01:11:09;;;;;;;0.00;0.00;;;;;;;;;;1740209;28;20253;-71
2022/10/11 01:12:03;;;;;;;0.00;0.00;;;;;;;;;;1739700;28;20508;-71
2022/10/11 01:12:58;;;;;;;0.00;0.00;;;;;;;;;;1740131;28;20245;-71
2022/10/11 01:13:57;;;;;;;0.00;0.00;;;;;;;;;;1740057;28;20695;-71
2022/10/11 01:15:10;;;;;;;0.00;0.00;;;;;;;;;;1740014;28;20223;-71
2022/10/11 01:16:07;;;;;;;0.00;0.00;;;;;;;;;;1740258;28;20237;-70
2022/10/11 01:17:03;;;;;;;0.00;0.00;;;;;;;;;;1740080;28;20427;-70
2022/10/11 01:17:58;;;;;;;0.00;0.00;;;;;;;;;;1739990;28;20270;-70
2022/10/11 01:18:56;;;;;;;0.00;0.00;;;;;;;;;;1740168;28;20577;-70
2022/10/11 01:19:52;;;;;;;0.00;0.00;;;;;;;;;;1739673;28;20298;-70
2022/10/11 01:20:49;;;;;;;0.00;0.00;;;;;;;;;;1740506;28;20187;-70
2022/10/11 01:21:43;;;;;;;0.00;0.00;;;;;;;;;;1739559;28;20289;-70
2022/10/11 01:22:43;;;;;;;0.00;0.00;;;;;;;;;;1739882;28;20207;-70
2022/10/11 01:23:52;;;;;;;0.00;0.00;;;;;;;;;;1739657;28;20291;-70
2022/10/11 01:24:53;;;;;;;0.00;0.00;;;;;;;;;;1739972;28;20230;-70
2022/10/11 01:25:52;;;;;;;0.00;0.00;;;;;;;;;;1739792;28;20187;-70
2022/10/11 01:27:13;;;;;;;0.00;0.00;;;;;;;;;;1740062;28;20248;-71
2022/10/11 01:28:15;;;;;;;0.00;0.00;;;;;;;;;;1739637;28;20214;-71
2022/10/11 01:29:11;;;;;;;0.00;0.00;;;;;;;;;;1740081;28;20199;-71
2022/10/11 01:30:18;;;;;;;0.00;0.00;;;;;;;;;;1739884;28;20245;-71
2022/10/11 01:31:14;;;;;;;0.00;0.00;;;;;;;;;;1740356;28;20640;-71
2022/10/11 01:32:09;;;;;;;0.00;0.00;;;;;;;;;;1739708;28;20541;-71
2022/10/11 01:33:06;;;;;;;0.00;0.00;;;;;;;;;;1740041;28;20226;-71
2022/10/11 01:34:01;;;;;;;0.00;0.00;;;;;;;;;;1739926;28;20294;-71
2022/10/11 01:34:55;;;;;;;0.00;0.00;;;;;;;;;;1739594;28;20234;-71
2022/10/11 01:35:50;;;;;;;0.00;0.00;;;;;;;;;;1740441;28;20453;-71
2022/10/11 01:36:43;;;;;;;0.00;0.00;;;;;;;;;;1739620;28;20547;-71
2022/10/11 01:37:36;;;;;;;0.00;0.00;;;;;;;;;;1740075;28;20609;-71
2022/10/11 01:38:30;;;;;;;0.00;0.00;;;;;;;;;;1739661;28;20529;-71
2022/10/11 01:39:25;;;;;;;0.00;0.00;;;;;;;;;;1740113;28;20272;-71
2022/10/11 01:40:22;;;;;;;0.00;0.00;;;;;;;;;;1739744;28;20686;-71
2022/10/11 01:41:16;;;;;;;0.00;0.00;;;;;;;;;;1740105;28;20249;-70
2022/10/11 01:42:10;;;;;;;0.00;0.00;;;;;;;;;;1739580;28;20579;-71
2022/10/11 01:43:02;;;;;;;0.00;0.00;;;;;;;;;;1739891;28;20261;-70
2022/10/11 01:43:56;;;;;;;0.00;0.00;;;;;;;;;;1739977;28;20545;-70
2022/10/11 01:44:48;;;;;;;0.00;0.00;;;;;;;;;;1739624;28;20243;-70
2022/10/11 01:45:42;;;;;;;0.00;0.00;;;;;;;;;;1740233;28;20210;-70
2022/10/11 01:46:34;;;;;;;0.00;0.00;;;;;;;;;;1739673;28;20689;-70
2022/10/11 01:47:26;;;;;;;0.00;0.00;;;;;;;;;;1740201;28;20210;-70
2022/10/11 01:48:17;;;;;;;0.00;0.00;;;;;;;;;;1739762;28;20215;-70
2022/10/11 01:49:09;;;;;;;0.00;0.00;;;;;;;;;;1739939;28;20217;-70
2022/10/11 01:50:04;;;;;;;0.00;0.00;;;;;;;;;;1739814;28;20269;-70
2022/10/11 01:50:57;;;;;;;0.00;0.00;;;;;;;;;;1739762;28;20330;-71
2022/10/11 01:51:50;;;;;;;0.00;0.00;;;;;;;;;;1739610;28;20276;-71
2022/10/11 01:52:43;;;;;;;0.00;0.00;;;;;;;;;;1740007;28;20199;-71
2022/10/11 01:53:44;;;;;;;0.00;0.00;;;;;;;;;;1739407;28;20747;-71
2022/10/11 01:54:40;;;;;;;0.00;0.00;;;;;;;;;;1740092;28;20193;-71
2022/10/11 01:55:37;;;;;;;0.00;0.00;;;;;;;;;;1740390;28;20555;-71
2022/10/11 01:56:39;;;;;;;0.00;0.00;;;;;;;;;;1739844;28;20187;-71
2022/10/11 01:57:54;;;;;;;0.00;0.00;;;;;;;;;;1740256;28;20646;-71
2022/10/11 01:58:52;;;;;;;0.00;0.00;;;;;;;;;;1739925;28;20219;-71
2022/10/11 01:59:51;;;;;;;0.00;0.00;;;;;;;;;;1739759;28;20447;-71
2022/10/11 02:00:50;;;;;;;0.00;0.00;;;;;;;;;;1740369;28;20686;-71
2022/10/11 02:01:49;;;;;;;0.00;0.00;;;;;;;;;;1739273;28;20242;-70
2022/10/11 02:02:50;;;;;;;0.00;0.00;;;;;;;;;;1739944;28;20245;-70
2022/10/11 02:03:44;;;;;;;0.00;0.00;;;;;;;;;;1739397;28;20533;-70
2022/10/11 02:04:40;;;;;;;0.00;0.00;;;;;;;;;;1739829;28;20688;-70
2022/10/11 02:05:35;;;;;;;0.00;0.00;;;;;;;;;;1740099;28;20333;-70
2022/10/11 02:06:33;;;;;;;0.00;0.00;;;;;;;;;;1739075;28;20199;-71
2022/10/11 02:07:28;;;;;;;0.00;0.00;;;;;;;;;;1740014;28;20233;-71
2022/10/11 02:08:25;;;;;;;0.00;0.00;;;;;;;;;;1739755;28;20286;-71
2022/10/11 02:09:20;;;;;;;0.00;0.00;;;;;;;;;;1740063;28;20202;-71
2022/10/11 02:10:16;;;;;;;0.00;0.00;;;;;;;;;;1740189;28;20209;-71
2022/10/11 02:11:09;;;;;;;0.00;0.00;;;;;;;;;;1739792;28;20238;-71
2022/10/11 02:12:03;;;;;;;0.00;0.00;;;;;;;;;;1739151;28;20199;-71
2022/10/11 02:12:58;;;;;;;0.00;0.00;;;;;;;;;;1739617;28;20264;-71
2022/10/11 02:13:53;;;;;;;0.00;0.00;;;;;;;;;;1739866;28;20217;-71
2022/10/11 02:14:47;;;;;;;0.00;0.00;;;;;;;;;;1739689;28;20233;-71
2022/10/11 02:15:40;;;;;;;0.00;0.00;;;;;;;;;;1740148;28;20516;-71
2022/10/11 02:16:35;;;;;;;0.00;0.00;;;;;;;;;;1739582;28;20326;-71
2022/10/11 02:17:30;;;;;;;0.00;0.00;;;;;;;;;;1739489;28;20211;-71
2022/10/11 02:18:23;;;;;;;0.00;0.00;;;;;;;;;;1739636;28;20684;-71
2022/10/11 02:19:17;;;;;;;0.00;0.00;;;;;;;;;;1739690;28;20209;-71
2022/10/11 02:20:12;;;;;;;0.00;0.00;;;;;;;;;;1739790;28;20238;-71
2022/10/11 02:21:06;;;;;;;0.00;0.00;;;;;;;;;;1739761;28;20632;-71
2022/10/11 02:22:01;;;;;;;0.00;0.00;;;;;;;;;;1739160;28;20291;-71
2022/10/11 02:22:55;;;;;;;0.00;0.00;;;;;;;;;;1739779;28;20286;-71
2022/10/11 02:23:47;;;;;;;0.00;0.00;;;;;;;;;;1739452;28;20292;-71
2022/10/11 02:24:42;;;;;;;0.00;0.00;;;;;;;;;;1739723;28;20359;-71
2022/10/11 02:25:34;;;;;;;0.00;0.00;;;;;;;;;;1740026;28;20215;-71
2022/10/11 02:26:28;;;;;;;0.00;0.00;;;;;;;;;;1739735;28;20195;-71
2022/10/11 02:27:22;;;;;;;0.00;0.00;;;;;;;;;;1739714;28;20269;-71
2022/10/11 02:28:15;;;;;;;0.00;0.00;;;;;;;;;;1739544;28;20684;-71
2022/10/11 02:29:08;;;;;;;0.00;0.00;;;;;;;;;;1739829;28;20227;-71
2022/10/11 02:30:03;;;;;;;0.00;0.00;;;;;;;;;;1739524;28;20211;-71
2022/10/11 02:30:56;;;;;;;0.00;0.00;;;;;;;;;;1739911;28;20276;-71
2022/10/11 02:31:50;;;;;;;0.00;0.00;;;;;;;;;;1739670;28;20640;-71
2022/10/11 02:32:43;;;;;;;0.00;0.00;;;;;;;;;;1740073;28;20684;-71
2022/10/11 02:33:38;;;;;;;0.00;0.00;;;;;;;;;;1739281;28;20640;-71
2022/10/11 02:34:31;;;;;;;0.00;0.00;;;;;;;;;;1739932;28;20288;-71
2022/10/11 02:35:25;;;;;;;0.00;0.00;;;;;;;;;;1739828;28;20209;-71
2022/10/11 02:36:20;;;;;;;0.00;0.00;;;;;;;;;;1739582;28;20526;-71
2022/10/11 02:37:16;;;;;;;0.00;0.00;;;;;;;;;;1739206;28;20198;-71
2022/10/11 02:38:12;;;;;;;0.00;0.00;;;;;;;;;;1738971;28;20314;-71
2022/10/11 02:39:07;;;;;;;0.00;0.00;;;;;;;;;;1739708;28;20191;-71
2022/10/11 02:40:03;;;;;;;0.00;0.00;;;;;;;;;;1739321;28;20637;-71
2022/10/11 02:40:57;;;;;;;0.00;0.00;;;;;;;;;;1739855;28;20195;-70
2022/10/11 02:41:49;;;;;;;0.00;0.00;;;;;;;;;;1739104;28;20549;-70
2022/10/11 02:42:43;;;;;;;0.00;0.00;;;;;;;;;;1739620;28;20222;-70
2022/10/11 02:43:38;;;;;;;0.00;0.00;;;;;;;;;;1739250;28;20207;-70
2022/10/11 02:44:32;;;;;;;0.00;0.00;;;;;;;;;;1739816;28;20199;-70
2022/10/11 02:45:26;;;;;;;0.00;0.00;;;;;;;;;;1739918;28;20200;-70
2022/10/11 02:46:18;;;;;;;0.00;0.00;;;;;;;;;;1739430;28;20203;-70
2022/10/11 02:47:11;;;;;;;0.00;0.00;;;;;;;;;;1739698;28;20290;-70
2022/10/11 02:48:04;;;;;;;0.00;0.00;;;;;;;;;;1739550;28;20660;-70
2022/10/11 02:48:55;;;;;;;0.00;0.00;;;;;;;;;;1739247;28;20277;-70
2022/10/11 02:49:47;;;;;;;0.00;0.00;;;;;;;;;;1739412;28;20560;-70
2022/10/11 02:50:39;;;;;;;0.00;0.00;;;;;;;;;;1739850;28;20230;-70
2022/10/11 02:51:31;;;;;;;0.00;0.00;;;;;;;;;;1739494;28;20668;-70
2022/10/11 02:52:22;;;;;;;0.00;0.00;;;;;;;;;;1739136;28;20207;-70
2022/10/11 02:53:14;;;;;;;0.00;0.00;;;;;;;;;;1739135;28;20202;-70
2022/10/11 02:54:05;;;;;;;0.00;0.00;;;;;;;;;;1739447;28;20692;-70
2022/10/11 02:54:57;;;;;;;0.00;0.00;;;;;;;;;;1739211;28;20213;-70
2022/10/11 02:55:49;;;;;;;0.00;0.00;;;;;;;;;;1739998;28;20302;-70
2022/10/11 02:56:41;;;;;;;0.00;0.00;;;;;;;;;;1739272;28;20195;-71
2022/10/11 02:57:32;;;;;;;0.00;0.00;;;;;;;;;;1739844;28;20202;-71
2022/10/11 02:58:24;;;;;;;0.00;0.00;;;;;;;;;;1739649;28;20199;-71
2022/10/11 02:59:15;;;;;;;0.00;0.00;;;;;;;;;;1739338;28;20207;-71
2022/10/11 03:00:08;;;;;;;0.00;0.00;;;;;;;;;;1739937;28;20293;-71
2022/10/11 03:00:59;;;;;;;0.00;0.00;;;;;;;;;;1739595;28;20609;-71
2022/10/11 03:01:51;;;;;;;0.00;0.00;;;;;;;;;;1739351;28;20206;-71
2022/10/11 03:02:43;;;;;;;0.00;0.00;;;;;;;;;;1739594;28;20684;-71
2022/10/11 03:03:35;;;;;;;0.00;0.00;;;;;;;;;;1739506;28;20203;-71
2022/10/11 03:04:27;;;;;;;0.00;0.00;;;;;;;;;;1739782;28;20389;-71
2022/10/11 03:05:19;;;;;;;0.00;0.00;;;;;;;;;;1739276;28;20458;-71
2022/10/11 03:06:10;;;;;;;0.00;0.00;;;;;;;;;;1739726;28;20699;-70
2022/10/11 03:07:02;;;;;;;0.00;0.00;;;;;;;;;;1739009;28;20199;-70
2022/10/11 03:07:53;;;;;;;0.00;0.00;;;;;;;;;;1739808;28;20260;-70
2022/10/11 03:08:45;;;;;;;0.00;0.00;;;;;;;;;;1739168;28;20199;-70
2022/10/11 03:09:36;;;;;;;0.00;0.00;;;;;;;;;;1739698;28;20246;-70
2022/10/11 03:10:28;;;;;;;0.00;0.00;;;;;;;;;;1738604;28;20195;-70
2022/10/11 03:11:19;;;;;;;0.00;0.00;;;;;;;;;;1739600;28;20249;-71
2022/10/11 03:12:11;;;;;;;0.00;0.00;;;;;;;;;;1739452;28;20518;-71
2022/10/11 03:13:02;;;;;;;0.00;0.00;;;;;;;;;;1739407;28;20221;-71
2022/10/11 03:13:54;;;;;;;0.00;0.00;;;;;;;;;;1739787;28;20268;-71
2022/10/11 03:14:46;;;;;;;0.00;0.00;;;;;;;;;;1739373;28;20294;-71
2022/10/11 03:15:38;;;;;;;0.00;0.00;;;;;;;;;;1739993;28;20226;-71
2022/10/11 03:16:29;;;;;;;0.00;0.00;;;;;;;;;;1739577;28;20612;-70
2022/10/11 03:17:21;;;;;;;0.00;0.00;;;;;;;;;;1739512;28;20198;-70
2022/10/11 03:18:13;;;;;;;0.00;0.00;;;;;;;;;;1739562;28;20246;-70
2022/10/11 03:19:05;;;;;;;0.00;0.00;;;;;;;;;;1739597;28;20204;-70
2022/10/11 03:19:56;;;;;;;0.00;0.00;;;;;;;;;;1739580;28;20221;-70
2022/10/11 03:20:48;;;;;;;0.00;0.00;;;;;;;;;;1739785;28;20260;-70
2022/10/11 03:21:39;;;;;;;0.00;0.00;;;;;;;;;;1739159;28;20598;-70
2022/10/11 03:22:31;;;;;;;0.00;0.00;;;;;;;;;;1739519;28;20207;-70
2022/10/11 03:23:22;;;;;;;0.00;0.00;;;;;;;;;;1739289;28;20679;-70
2022/10/11 03:24:14;;;;;;;0.00;0.00;;;;;;;;;;1739770;28;20207;-70
2022/10/11 03:25:06;;;;;;;0.00;0.00;;;;;;;;;;1739848;28;20222;-70
2022/10/11 03:25:57;;;;;;;0.00;0.00;;;;;;;;;;1739313;28;20554;-71
2022/10/11 03:26:49;;;;;;;0.00;0.00;;;;;;;;;;1739487;28;20191;-71
2022/10/11 03:27:40;;;;;;;0.00;0.00;;;;;;;;;;1739406;28;20286;-71
2022/10/11 03:28:32;;;;;;;0.00;0.00;;;;;;;;;;1739496;28;20616;-71
2022/10/11 03:29:23;;;;;;;0.00;0.00;;;;;;;;;;1739431;28;20633;-71
2022/10/11 03:30:16;;;;;;;0.00;0.00;;;;;;;;;;1739739;28;20207;-71
2022/10/11 03:31:07;;;;;;;0.00;0.00;;;;;;;;;;1739492;28;20207;-71
2022/10/11 03:31:59;;;;;;;0.10;0.10;;;;;;;;;;1738910;28;20535;-71
2022/10/11 03:32:50;;;;;;;0.00;0.00;;;;;;;;;;1739737;28;20678;-71
2022/10/11 03:33:44;;;;;;;0.00;0.00;;;;;;;;;;1739034;28;20222;-71
2022/10/11 03:34:35;;;;;;;0.00;0.00;;;;;;;;;;1739535;28;20242;-71
2022/10/11 03:35:27;;;;;;;0.00;0.00;;;;;;;;;;1739865;28;20209;-71
2022/10/11 03:36:19;;;;;;;0.00;0.00;;;;;;;;;;1739108;28;20298;-71
2022/10/11 03:37:10;;;;;;;0.00;0.00;;;;;;;;;;1739610;28;20204;-71
2022/10/11 03:38:02;;;;;;;0.00;0.00;;;;;;;;;;1739325;28;20230;-71
2022/10/11 03:38:53;;;;;;;0.00;0.00;;;;;;;;;;1739600;28;20302;-71
2022/10/11 03:39:45;;;;;;;0.00;0.00;;;;;;;;;;1739357;28;20204;-71
2022/10/11 03:40:36;;;;;;;0.00;0.00;;;;;;;;;;1739949;28;20210;-71
2022/10/11 03:41:28;;;;;;;0.00;0.00;;;;;;;;;;1739205;28;20199;-70
2022/10/11 03:42:20;;;;;;;0.00;0.00;;;;;;;;;;1739065;28;20298;-70
2022/10/11 03:43:12;;;;;;;0.00;0.00;;;;;;;;;;1739379;28;20211;-70
2022/10/11 03:44:03;;;;;;;0.00;0.00;;;;;;;;;;1739487;28;20218;-70
2022/10/11 03:44:55;;;;;;;0.00;0.00;;;;;;;;;;1739306;28;20632;-70
2022/10/11 03:45:47;;;;;;;0.00;0.00;;;;;;;;;;1739995;28;20198;-70
2022/10/11 03:46:39;;;;;;;0.00;0.00;;;;;;;;;;1739111;28;20337;-71
2022/10/11 03:47:31;;;;;;;0.00;0.00;;;;;;;;;;1739477;28;20633;-71
2022/10/11 03:48:22;;;;;;;0.00;0.00;;;;;;;;;;1739050;28;20207;-71
2022/10/11 03:49:15;;;;;;;0.00;0.00;;;;;;;;;;1740443;28;20258;-71
2022/10/11 03:50:07;;;;;;;0.00;0.00;;;;;;;;;;1740856;28;20259;-71
2022/10/11 03:50:59;;;;;;;0.03;0.03;;;;;;;;;;1740738;28;20268;-71
2022/10/11 03:51:50;;;;;;;0.00;0.00;;;;;;;;;;1740206;28;20290;-71
2022/10/11 03:52:42;;;;;;;0.00;0.00;;;;;;;;;;1740419;28;20206;-71
2022/10/11 03:53:33;;;;;;;0.00;0.00;;;;;;;;;;1740222;28;20235;-71
2022/10/11 03:54:26;;;;;;;0.00;0.00;;;;;;;;;;1740785;28;20611;-71
2022/10/11 03:55:17;;;;;;;0.00;0.00;;;;;;;;;;1740913;28;20253;-71
2022/10/11 03:56:09;;;;;;;0.00;0.00;;;;;;;;;;1741034;28;20921;-71
2022/10/11 03:57:00;;;;;;;0.00;0.00;;;;;;;;;;1740188;28;20252;-70
2022/10/11 03:57:52;;;;;;;0.00;0.00;;;;;;;;;;1740437;28;20233;-71
2022/10/11 03:58:43;;;;;;;0.00;0.00;;;;;;;;;;1740561;28;20203;-71
2022/10/11 03:59:35;;;;;;;0.00;0.00;;;;;;;;;;1740741;28;20636;-71
2022/10/11 04:00:26;;;;;;;0.00;0.00;;;;;;;;;;1746674;28;20655;-70
2022/10/11 04:01:18;;;;;;;0.00;0.00;;;;;;;;;;1747382;28;20683;-70
2022/10/11 04:02:10;;;;;;;0.00;0.00;;;;;;;;;;1747273;28;20761;-70
2022/10/11 04:03:02;;;;;;;0.00;0.00;;;;;;;;;;1747086;28;20233;-70
2022/10/11 04:03:55;;;;;;;0.00;0.00;;;;;;;;;;1747453;28;20271;-70
2022/10/11 04:04:48;;;;;;;0.00;0.00;;;;;;;;;;1745439;28;20202;-70
2022/10/11 04:05:39;;;;;;;0.00;0.00;;;;;;;;;;1741017;28;20241;-70
2022/10/11 04:06:31;;;;;;;0.00;0.00;;;;;;;;;;1740387;28;20199;-70
2022/10/11 04:07:22;;;;;;;0.00;0.00;;;;;;;;;;1740352;28;20234;-70
2022/10/11 04:08:14;;;;;;;0.00;0.00;;;;;;;;;;1740267;28;20217;-70
2022/10/11 04:09:05;;;;;;;0.00;0.00;;;;;;;;;;1740441;28;20261;-70
2022/10/11 04:09:56;;;;;;;0.00;0.00;;;;;;;;;;1740576;28;20203;-70
2022/10/11 04:10:49;;;;;;;0.00;0.00;;;;;;;;;;1740988;28;20199;-70
2022/10/11 04:11:40;;;;;;;0.00;0.00;;;;;;;;;;1740261;28;20210;-70
2022/10/11 04:12:32;;;;;;;0.00;0.00;;;;;;;;;;1740602;28;20641;-70
2022/10/11 04:13:23;;;;;;;0.00;0.00;;;;;;;;;;1740122;28;20662;-70
2022/10/11 04:14:16;;;;;;;0.00;0.00;;;;;;;;;;1740724;28;20207;-70
2022/10/11 04:15:07;;;;;;;0.00;0.00;;;;;;;;;;1740535;28;20706;-70
2022/10/11 04:15:59;;;;;;;0.00;0.00;;;;;;;;;;1740549;28;20203;-70
2022/10/11 04:16:50;;;;;;;0.00;0.00;;;;;;;;;;1740396;28;20253;-70
2022/10/11 04:17:42;;;;;;;0.00;0.00;;;;;;;;;;1740411;28;20608;-70
2022/10/11 04:18:33;;;;;;;0.00;0.00;;;;;;;;;;1740103;28;20249;-70
2022/10/11 04:19:25;;;;;;;0.00;0.00;;;;;;;;;;1740555;28;20234;-69
2022/10/11 04:20:18;;;;;;;0.00;0.00;;;;;;;;;;1740675;28;20667;-70
2022/10/11 04:21:10;;;;;;;0.00;0.00;;;;;;;;;;1740748;28;20207;-71
2022/10/11 04:22:01;;;;;;;0.00;0.00;;;;;;;;;;1739746;28;20257;-71
2022/10/11 04:22:53;;;;;;;0.00;0.00;;;;;;;;;;1740769;28;20198;-71
2022/10/11 04:23:44;;;;;;;0.00;0.00;;;;;;;;;;1740025;28;20250;-71
2022/10/11 04:24:36;;;;;;;0.00;0.00;;;;;;;;;;1740578;28;20640;-71
2022/10/11 04:25:27;;;;;;;0.05;0.05;;;;;;;;;;1740846;28;20648;-71
2022/10/11 04:26:19;;;;;;;0.00;0.00;;;;;;;;;;1740605;28;20613;-71
2022/10/11 04:27:10;;;;;;;0.00;0.00;;;;;;;;;;1740671;28;20663;-71
2022/10/11 04:28:02;;;;;;;0.00;0.00;;;;;;;;;;1740274;28;20226;-71
2022/10/11 04:28:54;;;;;;;0.00;0.00;;;;;;;;;;1740371;28;20246;-71
2022/10/11 04:29:46;;;;;;;0.00;0.00;;;;;;;;;;1736015;28;20522;-71
2022/10/11 04:30:38;;;;;;;0.00;0.00;;;;;;;;;;1734287;28;20983;-71
2022/10/11 04:31:29;;;;;;;0.00;0.00;;;;;;;;;;1735910;28;20553;-71
2022/10/11 04:32:21;;;;;;;0.00;0.00;;;;;;;;;;1735153;28;20250;-71
2022/10/11 04:33:12;;;;;;;0.00;0.00;;;;;;;;;;1736118;28;20600;-71
2022/10/11 04:34:04;;;;;;;0.00;0.00;;;;;;;;;;1744683;28;20208;-71
2022/10/11 04:34:55;;;;;;;0.00;0.00;;;;;;;;;;1747021;28;20528;-71
2022/10/11 04:35:48;;;;;;;0.00;0.00;;;;;;;;;;1747877;28;20190;-71
2022/10/11 04:36:39;;;;;;;0.00;0.00;;;;;;;;;;1747085;28;20280;-70
2022/10/11 04:37:32;;;;;;;0.10;0.10;;;;;;;;;;1744244;28;20195;-70
2022/10/11 04:38:23;;;;;;;0.00;0.00;;;;;;;;;;1744147;28;20685;-70
2022/10/11 04:39:15;;;;;;;0.00;0.00;;;;;;;;;;1747475;28;20846;-70
2022/10/11 04:40:07;;;;;;;0.00;0.00;;;;;;;;;;1747197;28;20770;-69
2022/10/11 04:41:06;;;;;;;0.00;0.00;;;;;;;;;;1747448;28;20210;-71
2022/10/11 04:41:57;;;;;;;0.00;0.00;;;;;;;;;;1746917;28;20211;-71
2022/10/11 04:42:52;;;;;;;0.00;0.00;;;;;;;;;;1747225;28;20206;-71
2022/10/11 04:43:43;;;;;;;0.00;0.00;;;;;;;;;;1747015;28;20229;-71
2022/10/11 04:44:35;;;;;;;0.00;0.00;;;;;;;;;;1747129;28;20202;-71
2022/10/11 04:45:26;;;;;;;0.00;0.00;;;;;;;;;;1744762;28;20252;-71
2022/10/11 04:46:18;;;;;;;0.00;0.00;;;;;;;;;;1740705;28;20730;-71
2022/10/11 04:47:10;;;;;;;0.00;0.00;;;;;;;;;;1747274;28;20744;-71
2022/10/11 04:48:02;;;;;;;0.10;0.10;;;;;;;;;;1747078;28;20293;-71
2022/10/11 04:48:53;;;;;;;0.00;0.00;;;;;;;;;;1747489;28;20252;-71
2022/10/11 04:49:45;;;;;;;0.00;0.00;;;;;;;;;;1742810;28;20705;-71
2022/10/11 04:50:36;;;;;;;0.00;0.00;;;;;;;;;;1736871;28;20245;-71
2022/10/11 04:51:32;;;;;;;0.00;0.00;;;;;;;;;;1740204;28;20621;-70
2022/10/11 04:52:23;;;;;;;0.00;0.00;;;;;;;;;;1739971;28;20533;-70
2022/10/11 04:53:15;;;;;;;0.00;0.00;;;;;;;;;;1739712;28;20697;-70
2022/10/11 04:54:06;;;;;;;0.00;0.00;;;;;;;;;;1740242;28;20211;-70
2022/10/11 04:54:58;;;;;;;0.00;0.00;;;;;;;;;;1740204;28;20242;-69
2022/10/11 04:55:55;;;;;;;0.00;0.00;;;;;;;;;;1740203;28;20241;-69
2022/10/11 04:56:47;;;;;;;0.00;0.00;;;;;;;;;;1739183;28;20229;-70
2022/10/11 04:57:38;;;;;;;0.00;0.00;;;;;;;;;;1740339;28;20899;-70
2022/10/11 04:58:31;;;;;;;0.00;0.00;;;;;;;;;;1739896;28;20191;-71
2022/10/11 04:59:22;;;;;;;0.00;0.00;;;;;;;;;;1740411;28;20238;-70
2022/10/11 05:00:14;;;;;;;0.00;0.00;;;;;;;;;;1739638;28;20206;-70
2022/10/11 05:01:06;;;;;;;0.00;0.00;;;;;;;;;;1739838;28;20238;-70
2022/10/11 05:01:58;;;;;;;0.03;0.03;;;;;;;;;;1739766;28;20213;-70
2022/10/11 05:02:49;;;;;;;0.00;0.00;;;;;;;;;;1740113;28;20321;-69
2022/10/11 05:03:41;;;;;;;0.00;0.00;;;;;;;;;;1740037;28;20549;-70
2022/10/11 05:04:32;;;;;;;0.00;0.00;;;;;;;;;;1740260;28;20228;-70
2022/10/11 05:05:24;;;;;;;0.00;0.00;;;;;;;;;;1740447;28;20518;-69
2022/10/11 05:06:15;;;;;;;0.00;0.00;;;;;;;;;;1739864;28;20590;-70
2022/10/11 05:07:09;;;;;;;0.00;0.00;;;;;;;;;;1739919;28;20239;-71
2022/10/11 05:08:00;;;;;;;0.00;0.00;;;;;;;;;;1740248;28;20715;-70
2022/10/11 05:08:52;;;;;;;0.00;0.00;;;;;;;;;;1739911;28;20242;-70
2022/10/11 05:09:43;;;;;;;0.00;0.00;;;;;;;;;;1740073;28;20245;-70
2022/10/11 05:10:35;;;;;;;0.00;0.00;;;;;;;;;;1740360;28;20195;-70
2022/10/11 05:11:26;;;;;;;0.05;0.05;;;;;;;;;;1739755;28;20502;-69
2022/10/11 05:12:18;;;;;;;0.00;0.00;;;;;;;;;;1739999;28;20199;-70
2022/10/11 05:13:09;;;;;;;0.00;0.00;;;;;;;;;;1739832;28;20211;-69
2022/10/11 05:14:01;;;;;;;0.00;0.00;;;;;;;;;;1740293;28;20556;-70
2022/10/11 05:14:52;;;;;;;0.00;0.00;;;;;;;;;;1739781;28;20703;-69
2022/10/11 05:15:44;;;;;;;0.00;0.00;;;;;;;;;;1740715;28;20227;-69
2022/10/11 05:16:35;;;;;;;0.00;0.00;;;;;;;;;;1739846;28;20230;-70
2022/10/11 05:17:28;;;;;;;0.00;0.00;;;;;;;;;;1739871;28;20635;-70
2022/10/11 05:18:19;;;;;;;0.00;0.00;;;;;;;;;;1740049;28;20234;-70